sensor_id;sensor_type;location;lat;lon;timestamp;P1;durP1;ratioP1;P2;durP2;ratioP2
37407;SDS011;24866;50.248;8.252;2023-06-24T00:00:25;6.50;;;4.75;;
37407;SDS011;24866;50.248;8.252;2023-06-24T00:05:29;6.00;;;4.88;;
37407;SDS011;24866;50.248;8.252;2023-06-24T00:08:00;6.32;;;4.85;;
37407;SDS011;24866;50.248;8.252;2023-06-24T00:10:31;6.82;;;4.68;;
37407;SDS011;24866;50.248;8.252;2023-06-24T00:13:01;7.20;;;5.13;;
37407;SDS011;24866;50.248;8.252;2023-06-24T00:15:31;5.75;;;4.63;;
37407;SDS011;24866;50.248;8.252;2023-06-24T00:18:02;9.55;;;5.20;;
37407;SDS011;24866;50.248;8.252;2023-06-24T00:20:34;6.20;;;4.78;;
37407;SDS011;24866;50.248;8.252;2023-06-24T00:23:04;5.20;;;4.18;;
37407;SDS011;24866;50.248;8.252;2023-06-24T00:25:34;6.68;;;4.57;;
37407;SDS011;24866;50.248;8.252;2023-06-24T00:28:04;4.93;;;4.43;;
37407;SDS011;24866;50.248;8.252;2023-06-24T00:30:34;8.85;;;5.20;;
37407;SDS011;24866;50.248;8.252;2023-06-24T00:33:05;6.32;;;5.00;;
37407;SDS011;24866;50.248;8.252;2023-06-24T00:35:37;5.35;;;4.85;;
37407;SDS011;24866;50.248;8.252;2023-06-24T00:38:07;6.80;;;5.00;;
37407;SDS011;24866;50.248;8.252;2023-06-24T00:40:37;6.22;;;4.88;;
37407;SDS011;24866;50.248;8.252;2023-06-24T00:43:07;5.88;;;4.80;;
37407;SDS011;24866;50.248;8.252;2023-06-24T00:45:37;7.13;;;4.78;;
37407;SDS011;24866;50.248;8.252;2023-06-24T00:48:10;6.78;;;4.85;;
37407;SDS011;24866;50.248;8.252;2023-06-24T00:50:40;5.43;;;4.63;;
37407;SDS011;24866;50.248;8.252;2023-06-24T00:53:13;6.70;;;5.07;;
37407;SDS011;24866;50.248;8.252;2023-06-24T00:55:43;7.32;;;4.93;;
37407;SDS011;24866;50.248;8.252;2023-06-24T00:58:14;6.28;;;4.63;;
37407;SDS011;24866;50.248;8.252;2023-06-24T01:00:44;6.60;;;5.05;;
37407;SDS011;24866;50.248;8.252;2023-06-24T01:03:16;5.85;;;5.07;;
37407;SDS011;24866;50.248;8.252;2023-06-24T01:05:46;7.28;;;5.00;;
37407;SDS011;24866;50.248;8.252;2023-06-24T01:08:16;5.93;;;4.57;;
37407;SDS011;24866;50.248;8.252;2023-06-24T01:10:47;5.82;;;4.43;;
37407;SDS011;24866;50.248;8.252;2023-06-24T01:13:17;6.40;;;4.82;;
37407;SDS011;24866;50.248;8.252;2023-06-24T01:15:47;6.68;;;5.10;;
37407;SDS011;24866;50.248;8.252;2023-06-24T01:18:21;8.27;;;4.82;;
37407;SDS011;24866;50.248;8.252;2023-06-24T01:20:57;6.03;;;4.53;;
37407;SDS011;24866;50.248;8.252;2023-06-24T01:23:41;5.28;;;4.53;;
37407;SDS011;24866;50.248;8.252;2023-06-24T01:32:36;6.75;;;5.07;;
37407;SDS011;24866;50.248;8.252;2023-06-24T01:35:15;7.75;;;4.97;;
37407;SDS011;24866;50.248;8.252;2023-06-24T01:37:50;6.13;;;4.72;;
37407;SDS011;24866;50.248;8.252;2023-06-24T01:40:22;7.50;;;5.45;;
37407;SDS011;24866;50.248;8.252;2023-06-24T01:42:56;6.38;;;5.03;;
37407;SDS011;24866;50.248;8.252;2023-06-24T01:45:28;7.63;;;5.22;;
37407;SDS011;24866;50.248;8.252;2023-06-24T01:48:04;6.25;;;5.13;;
37407;SDS011;24866;50.248;8.252;2023-06-24T01:50:38;8.43;;;5.63;;
37407;SDS011;24866;50.248;8.252;2023-06-24T01:53:11;7.30;;;4.45;;
37407;SDS011;24866;50.248;8.252;2023-06-24T01:55:43;7.68;;;4.35;;
37407;SDS011;24866;50.248;8.252;2023-06-24T01:58:15;7.95;;;5.22;;
37407;SDS011;24866;50.248;8.252;2023-06-24T02:00:46;6.50;;;4.90;;
37407;SDS011;24866;50.248;8.252;2023-06-24T02:03:19;7.30;;;4.78;;
37407;SDS011;24866;50.248;8.252;2023-06-24T02:05:50;8.63;;;4.93;;
37407;SDS011;24866;50.248;8.252;2023-06-24T02:08:22;7.20;;;5.07;;
37407;SDS011;24866;50.248;8.252;2023-06-24T02:10:53;6.78;;;5.00;;
37407;SDS011;24866;50.248;8.252;2023-06-24T02:13:24;8.25;;;5.07;;
37407;SDS011;24866;50.248;8.252;2023-06-24T02:15:55;6.60;;;5.05;;
37407;SDS011;24866;50.248;8.252;2023-06-24T02:18:27;6.72;;;4.97;;
37407;SDS011;24866;50.248;8.252;2023-06-24T02:20:56;7.55;;;4.82;;
37407;SDS011;24866;50.248;8.252;2023-06-24T02:23:28;8.95;;;4.90;;
37407;SDS011;24866;50.248;8.252;2023-06-24T02:25:59;7.13;;;4.90;;
37407;SDS011;24866;50.248;8.252;2023-06-24T02:28:29;7.63;;;5.35;;
37407;SDS011;24866;50.248;8.252;2023-06-24T02:30:59;7.47;;;5.15;;
37407;SDS011;24866;50.248;8.252;2023-06-24T02:33:31;10.45;;;4.78;;
37407;SDS011;24866;50.248;8.252;2023-06-24T02:36:01;8.32;;;5.78;;
37407;SDS011;24866;50.248;8.252;2023-06-24T02:38:31;7.78;;;5.05;;
37407;SDS011;24866;50.248;8.252;2023-06-24T02:41:01;5.10;;;4.38;;
37407;SDS011;24866;50.248;8.252;2023-06-24T02:43:32;9.63;;;4.53;;
37407;SDS011;24866;50.248;8.252;2023-06-24T02:46:03;7.07;;;5.22;;
37407;SDS011;24866;50.248;8.252;2023-06-24T02:48:37;6.88;;;5.25;;
37407;SDS011;24866;50.248;8.252;2023-06-24T02:51:08;6.63;;;4.70;;
37407;SDS011;24866;50.248;8.252;2023-06-24T02:53:40;7.75;;;5.53;;
37407;SDS011;24866;50.248;8.252;2023-06-24T02:56:11;7.03;;;4.90;;
37407;SDS011;24866;50.248;8.252;2023-06-24T02:58:42;6.72;;;5.10;;
37407;SDS011;24866;50.248;8.252;2023-06-24T03:01:13;7.85;;;5.07;;
37407;SDS011;24866;50.248;8.252;2023-06-24T03:03:45;8.35;;;5.18;;
37407;SDS011;24866;50.248;8.252;2023-06-24T03:06:17;12.00;;;5.38;;
37407;SDS011;24866;50.248;8.252;2023-06-24T03:08:48;7.20;;;5.40;;
37407;SDS011;24866;50.248;8.252;2023-06-24T03:11:18;6.88;;;4.47;;
37407;SDS011;24866;50.248;8.252;2023-06-24T03:13:48;8.48;;;5.10;;
37407;SDS011;24866;50.248;8.252;2023-06-24T03:16:18;6.68;;;5.18;;
37407;SDS011;24866;50.248;8.252;2023-06-24T03:18:49;6.40;;;5.20;;
37407;SDS011;24866;50.248;8.252;2023-06-24T03:21:19;7.22;;;4.93;;
37407;SDS011;24866;50.248;8.252;2023-06-24T03:23:49;5.60;;;4.60;;
37407;SDS011;24866;50.248;8.252;2023-06-24T03:26:18;7.78;;;5.22;;
37407;SDS011;24866;50.248;8.252;2023-06-24T03:28:48;6.68;;;4.78;;
37407;SDS011;24866;50.248;8.252;2023-06-24T03:31:18;5.60;;;4.50;;
37407;SDS011;24866;50.248;8.252;2023-06-24T03:36:22;5.75;;;4.65;;
37407;SDS011;24866;50.248;8.252;2023-06-24T03:38:53;10.27;;;4.72;;
37407;SDS011;24866;50.248;8.252;2023-06-24T03:41:22;7.00;;;4.60;;
37407;SDS011;24866;50.248;8.252;2023-06-24T03:43:54;6.35;;;5.03;;
37407;SDS011;24866;50.248;8.252;2023-06-24T03:46:24;8.52;;;4.95;;
37407;SDS011;24866;50.248;8.252;2023-06-24T03:48:55;7.10;;;5.07;;
37407;SDS011;24866;50.248;8.252;2023-06-24T03:51:25;7.30;;;4.75;;
37407;SDS011;24866;50.248;8.252;2023-06-24T03:53:55;8.20;;;5.35;;
37407;SDS011;24866;50.248;8.252;2023-06-24T03:56:25;6.07;;;5.13;;
37407;SDS011;24866;50.248;8.252;2023-06-24T03:58:54;8.20;;;5.80;;
37407;SDS011;24866;50.248;8.252;2023-06-24T04:01:24;7.38;;;5.30;;
37407;SDS011;24866;50.248;8.252;2023-06-24T04:03:55;5.57;;;4.70;;
37407;SDS011;24866;50.248;8.252;2023-06-24T04:06:25;6.32;;;5.05;;
37407;SDS011;24866;50.248;8.252;2023-06-24T04:08:55;8.95;;;5.20;;
37407;SDS011;24866;50.248;8.252;2023-06-24T04:11:25;11.85;;;5.28;;
37407;SDS011;24866;50.248;8.252;2023-06-24T04:13:55;7.45;;;5.43;;
37407;SDS011;24866;50.248;8.252;2023-06-24T04:16:24;8.20;;;5.70;;
37407;SDS011;24866;50.248;8.252;2023-06-24T04:18:55;8.32;;;5.28;;
37407;SDS011;24866;50.248;8.252;2023-06-24T04:21:25;7.45;;;5.75;;
37407;SDS011;24866;50.248;8.252;2023-06-24T04:23:55;9.65;;;5.47;;
37407;SDS011;24866;50.248;8.252;2023-06-24T04:26:25;8.68;;;5.45;;
37407;SDS011;24866;50.248;8.252;2023-06-24T04:28:55;8.10;;;5.57;;
37407;SDS011;24866;50.248;8.252;2023-06-24T04:31:25;8.38;;;5.65;;
37407;SDS011;24866;50.248;8.252;2023-06-24T04:33:57;7.65;;;5.85;;
37407;SDS011;24866;50.248;8.252;2023-06-24T04:36:27;8.57;;;5.45;;
37407;SDS011;24866;50.248;8.252;2023-06-24T04:38:57;6.93;;;5.22;;
37407;SDS011;24866;50.248;8.252;2023-06-24T04:41:26;9.27;;;6.13;;
37407;SDS011;24866;50.248;8.252;2023-06-24T04:43:56;8.27;;;6.20;;
37407;SDS011;24866;50.248;8.252;2023-06-24T04:46:26;6.70;;;5.72;;
37407;SDS011;24866;50.248;8.252;2023-06-24T04:48:57;8.27;;;6.05;;
37407;SDS011;24866;50.248;8.252;2023-06-24T04:51:27;10.35;;;6.60;;
37407;SDS011;24866;50.248;8.252;2023-06-24T04:53:57;8.55;;;6.03;;
37407;SDS011;24866;50.248;8.252;2023-06-24T04:56:27;8.07;;;6.07;;
37407;SDS011;24866;50.248;8.252;2023-06-24T04:58:57;12.25;;;7.43;;
37407;SDS011;24866;50.248;8.252;2023-06-24T05:01:27;7.45;;;6.30;;
37407;SDS011;24866;50.248;8.252;2023-06-24T05:03:58;10.18;;;6.75;;
37407;SDS011;24866;50.248;8.252;2023-06-24T05:06:28;9.48;;;6.60;;
37407;SDS011;24866;50.248;8.252;2023-06-24T05:08:58;9.50;;;6.30;;
37407;SDS011;24866;50.248;8.252;2023-06-24T05:11:27;6.40;;;5.50;;
37407;SDS011;24866;50.248;8.252;2023-06-24T05:13:57;10.23;;;6.82;;
37407;SDS011;24866;50.248;8.252;2023-06-24T05:16:27;10.85;;;6.57;;
37407;SDS011;24866;50.248;8.252;2023-06-24T05:18:58;8.70;;;6.20;;
37407;SDS011;24866;50.248;8.252;2023-06-24T05:21:28;8.70;;;7.03;;
37407;SDS011;24866;50.248;8.252;2023-06-24T05:23:58;9.82;;;6.68;;
37407;SDS011;24866;50.248;8.252;2023-06-24T05:26:27;9.32;;;7.47;;
37407;SDS011;24866;50.248;8.252;2023-06-24T05:28:57;8.95;;;6.50;;
37407;SDS011;24866;50.248;8.252;2023-06-24T05:31:27;9.63;;;6.43;;
37407;SDS011;24866;50.248;8.252;2023-06-24T05:33:58;9.63;;;7.35;;
37407;SDS011;24866;50.248;8.252;2023-06-24T05:36:28;10.07;;;6.82;;
37407;SDS011;24866;50.248;8.252;2023-06-24T05:38:58;10.27;;;7.68;;
37407;SDS011;24866;50.248;8.252;2023-06-24T05:41:28;8.05;;;7.05;;
37407;SDS011;24866;50.248;8.252;2023-06-24T05:44:01;10.93;;;7.30;;
37407;SDS011;24866;50.248;8.252;2023-06-24T05:46:31;13.75;;;7.50;;
37407;SDS011;24866;50.248;8.252;2023-06-24T05:49:03;9.20;;;7.85;;
37407;SDS011;24866;50.248;8.252;2023-06-24T05:51:33;8.18;;;6.97;;
37407;SDS011;24866;50.248;8.252;2023-06-24T05:54:03;9.13;;;6.85;;
37407;SDS011;24866;50.248;8.252;2023-06-24T05:56:33;10.27;;;7.10;;
37407;SDS011;24866;50.248;8.252;2023-06-24T05:59:04;12.38;;;7.00;;
37407;SDS011;24866;50.248;8.252;2023-06-24T06:01:34;8.80;;;6.85;;
37407;SDS011;24866;50.248;8.252;2023-06-24T06:04:05;9.73;;;6.80;;
37407;SDS011;24866;50.248;8.252;2023-06-24T06:06:35;9.60;;;7.63;;
37407;SDS011;24866;50.248;8.252;2023-06-24T06:09:04;9.43;;;7.63;;
37407;SDS011;24866;50.248;8.252;2023-06-24T06:11:34;9.63;;;7.72;;
37407;SDS011;24866;50.248;8.252;2023-06-24T06:14:04;9.32;;;7.80;;
37407;SDS011;24866;50.248;8.252;2023-06-24T06:16:34;9.23;;;7.57;;
37407;SDS011;24866;50.248;8.252;2023-06-24T06:19:05;10.30;;;7.28;;
37407;SDS011;24866;50.248;8.252;2023-06-24T06:21:36;11.10;;;7.38;;
37407;SDS011;24866;50.248;8.252;2023-06-24T06:24:06;8.40;;;7.10;;
37407;SDS011;24866;50.248;8.252;2023-06-24T06:26:41;8.57;;;7.03;;
37407;SDS011;24866;50.248;8.252;2023-06-24T06:29:12;7.72;;;6.15;;
37407;SDS011;24866;50.248;8.252;2023-06-24T06:31:42;7.47;;;6.55;;
37407;SDS011;24866;50.248;8.252;2023-06-24T06:34:13;8.75;;;6.63;;
37407;SDS011;24866;50.248;8.252;2023-06-24T06:36:44;8.23;;;6.55;;
37407;SDS011;24866;50.248;8.252;2023-06-24T06:39:14;9.02;;;6.18;;
37407;SDS011;24866;50.248;8.252;2023-06-24T06:41:44;8.85;;;6.07;;
37407;SDS011;24866;50.248;8.252;2023-06-24T06:44:14;7.95;;;6.70;;
37407;SDS011;24866;50.248;8.252;2023-06-24T06:46:45;10.80;;;6.60;;
37407;SDS011;24866;50.248;8.252;2023-06-24T06:49:16;7.40;;;5.97;;
37407;SDS011;24866;50.248;8.252;2023-06-24T06:51:46;8.75;;;6.13;;
37407;SDS011;24866;50.248;8.252;2023-06-24T06:54:16;8.05;;;5.80;;
37407;SDS011;24866;50.248;8.252;2023-06-24T06:56:46;7.72;;;6.00;;
37407;SDS011;24866;50.248;8.252;2023-06-24T06:59:16;8.45;;;6.00;;
37407;SDS011;24866;50.248;8.252;2023-06-24T07:01:45;7.10;;;5.35;;
37407;SDS011;24866;50.248;8.252;2023-06-24T07:04:17;6.38;;;5.50;;
37407;SDS011;24866;50.248;8.252;2023-06-24T07:06:46;8.13;;;5.32;;
37407;SDS011;24866;50.248;8.252;2023-06-24T07:09:16;8.43;;;5.85;;
37407;SDS011;24866;50.248;8.252;2023-06-24T07:11:47;9.48;;;5.25;;
37407;SDS011;24866;50.248;8.252;2023-06-24T07:14:17;10.20;;;5.55;;
37407;SDS011;24866;50.248;8.252;2023-06-24T07:16:46;6.50;;;4.68;;
37407;SDS011;24866;50.248;8.252;2023-06-24T07:19:18;7.45;;;5.13;;
37407;SDS011;24866;50.248;8.252;2023-06-24T07:21:47;6.72;;;5.15;;
37407;SDS011;24866;50.248;8.252;2023-06-24T07:24:17;6.85;;;4.60;;
37407;SDS011;24866;50.248;8.252;2023-06-24T07:26:47;7.30;;;4.57;;
37407;SDS011;24866;50.248;8.252;2023-06-24T07:29:17;7.22;;;5.60;;
37407;SDS011;24866;50.248;8.252;2023-06-24T07:31:47;5.30;;;4.10;;
37407;SDS011;24866;50.248;8.252;2023-06-24T07:34:18;7.05;;;4.35;;
37407;SDS011;24866;50.248;8.252;2023-06-24T07:36:48;6.35;;;4.60;;
37407;SDS011;24866;50.248;8.252;2023-06-24T07:39:18;6.47;;;4.50;;
37407;SDS011;24866;50.248;8.252;2023-06-24T07:41:48;6.07;;;4.78;;
37407;SDS011;24866;50.248;8.252;2023-06-24T07:44:18;7.47;;;3.90;;
37407;SDS011;24866;50.248;8.252;2023-06-24T07:46:48;5.85;;;4.45;;
37407;SDS011;24866;50.248;8.252;2023-06-24T07:49:20;9.88;;;4.80;;
37407;SDS011;24866;50.248;8.252;2023-06-24T07:51:50;6.80;;;4.32;;
37407;SDS011;24866;50.248;8.252;2023-06-24T07:54:20;5.72;;;4.32;;
37407;SDS011;24866;50.248;8.252;2023-06-24T07:56:50;5.72;;;4.40;;
37407;SDS011;24866;50.248;8.252;2023-06-24T07:59:20;8.52;;;4.75;;
37407;SDS011;24866;50.248;8.252;2023-06-24T08:01:50;7.95;;;4.85;;
37407;SDS011;24866;50.248;8.252;2023-06-24T08:04:21;6.28;;;4.60;;
37407;SDS011;24866;50.248;8.252;2023-06-24T08:06:52;6.97;;;4.72;;
37407;SDS011;24866;50.248;8.252;2023-06-24T08:09:22;7.15;;;4.57;;
37407;SDS011;24866;50.248;8.252;2023-06-24T08:11:52;5.88;;;4.32;;
37407;SDS011;24866;50.248;8.252;2023-06-24T08:14:22;5.45;;;4.13;;
37407;SDS011;24866;50.248;8.252;2023-06-24T08:16:52;5.22;;;4.35;;
37407;SDS011;24866;50.248;8.252;2023-06-24T08:19:24;7.65;;;4.60;;
37407;SDS011;24866;50.248;8.252;2023-06-24T08:21:54;7.68;;;5.38;;
37407;SDS011;24866;50.248;8.252;2023-06-24T08:24:24;6.28;;;4.80;;
37407;SDS011;24866;50.248;8.252;2023-06-24T08:26:54;7.93;;;4.05;;
37407;SDS011;24866;50.248;8.252;2023-06-24T08:29:24;6.43;;;4.80;;
37407;SDS011;24866;50.248;8.252;2023-06-24T08:31:54;7.35;;;5.18;;
37407;SDS011;24866;50.248;8.252;2023-06-24T08:34:25;8.25;;;5.20;;
37407;SDS011;24866;50.248;8.252;2023-06-24T08:36:55;6.93;;;5.28;;
37407;SDS011;24866;50.248;8.252;2023-06-24T08:39:24;6.25;;;4.70;;
37407;SDS011;24866;50.248;8.252;2023-06-24T08:41:54;6.00;;;4.22;;
37407;SDS011;24866;50.248;8.252;2023-06-24T08:44:24;7.25;;;5.15;;
37407;SDS011;24866;50.248;8.252;2023-06-24T08:46:54;7.53;;;4.38;;
37407;SDS011;24866;50.248;8.252;2023-06-24T08:49:27;7.30;;;5.95;;
37407;SDS011;24866;50.248;8.252;2023-06-24T08:52:03;8.93;;;5.75;;
37407;SDS011;24866;50.248;8.252;2023-06-24T08:54:38;11.65;;;5.60;;
37407;SDS011;24866;50.248;8.252;2023-06-24T08:57:09;5.55;;;3.63;;
37407;SDS011;24866;50.248;8.252;2023-06-24T08:59:42;5.82;;;3.55;;
37407;SDS011;24866;50.248;8.252;2023-06-24T09:02:12;7.72;;;4.47;;
37407;SDS011;24866;50.248;8.252;2023-06-24T09:04:44;6.15;;;4.63;;
37407;SDS011;24866;50.248;8.252;2023-06-24T09:07:14;7.50;;;4.13;;
37407;SDS011;24866;50.248;8.252;2023-06-24T09:09:54;6.95;;;4.57;;
37407;SDS011;24866;50.248;8.252;2023-06-24T09:12:24;6.13;;;3.97;;
37407;SDS011;24866;50.248;8.252;2023-06-24T09:14:54;6.03;;;3.83;;
37407;SDS011;24866;50.248;8.252;2023-06-24T09:17:24;5.65;;;3.95;;
37407;SDS011;24866;50.248;8.252;2023-06-24T09:20:04;7.72;;;4.47;;
37407;SDS011;24866;50.248;8.252;2023-06-24T09:22:34;5.95;;;4.10;;
37407;SDS011;24866;50.248;8.252;2023-06-24T09:25:04;6.45;;;4.32;;
37407;SDS011;24866;50.248;8.252;2023-06-24T09:27:34;9.68;;;4.15;;
37407;SDS011;24866;50.248;8.252;2023-06-24T09:30:15;5.85;;;4.25;;
37407;SDS011;24866;50.248;8.252;2023-06-24T09:32:48;6.90;;;4.70;;
37407;SDS011;24866;50.248;8.252;2023-06-24T09:35:20;5.30;;;4.45;;
37407;SDS011;24866;50.248;8.252;2023-06-24T09:37:51;7.00;;;4.20;;
37407;SDS011;24866;50.248;8.252;2023-06-24T09:40:22;5.80;;;4.40;;
37407;SDS011;24866;50.248;8.252;2023-06-24T09:42:52;7.63;;;5.13;;
37407;SDS011;24866;50.248;8.252;2023-06-24T09:45:24;7.28;;;4.68;;
37407;SDS011;24866;50.248;8.252;2023-06-24T09:47:55;6.97;;;4.90;;
37407;SDS011;24866;50.248;8.252;2023-06-24T09:50:27;5.88;;;4.40;;
37407;SDS011;24866;50.248;8.252;2023-06-24T09:55:28;6.13;;;4.30;;
37407;SDS011;24866;50.248;8.252;2023-06-24T09:57:58;7.68;;;5.25;;
37407;SDS011;24866;50.248;8.252;2023-06-24T10:00:28;7.10;;;4.50;;
37407;SDS011;24866;50.248;8.252;2023-06-24T10:02:58;6.72;;;5.28;;
37407;SDS011;24866;50.248;8.252;2023-06-24T10:05:29;6.20;;;4.13;;
37407;SDS011;24866;50.248;8.252;2023-06-24T10:07:59;6.75;;;5.15;;
37407;SDS011;24866;50.248;8.252;2023-06-24T10:10:29;9.23;;;4.60;;
37407;SDS011;24866;50.248;8.252;2023-06-24T10:12:59;6.97;;;4.97;;
37407;SDS011;24866;50.248;8.252;2023-06-24T10:15:29;7.75;;;5.68;;
37407;SDS011;24866;50.248;8.252;2023-06-24T10:18:01;7.68;;;5.45;;
37407;SDS011;24866;50.248;8.252;2023-06-24T10:20:32;6.45;;;4.80;;
37407;SDS011;24866;50.248;8.252;2023-06-24T10:23:06;6.85;;;4.18;;
37407;SDS011;24866;50.248;8.252;2023-06-24T10:25:36;6.65;;;3.83;;
37407;SDS011;24866;50.248;8.252;2023-06-24T10:28:06;7.47;;;4.63;;
37407;SDS011;24866;50.248;8.252;2023-06-24T10:30:36;7.07;;;5.38;;
37407;SDS011;24866;50.248;8.252;2023-06-24T10:33:09;6.40;;;3.92;;
37407;SDS011;24866;50.248;8.252;2023-06-24T10:38:12;6.15;;;3.90;;
37407;SDS011;24866;50.248;8.252;2023-06-24T10:40:43;6.03;;;4.13;;
37407;SDS011;24866;50.248;8.252;2023-06-24T10:43:26;5.40;;;4.00;;
37407;SDS011;24866;50.248;8.252;2023-06-24T10:45:57;6.15;;;4.68;;
37407;SDS011;24866;50.248;8.252;2023-06-24T10:48:28;6.57;;;4.13;;
37407;SDS011;24866;50.248;8.252;2023-06-24T10:50:59;6.53;;;4.95;;
37407;SDS011;24866;50.248;8.252;2023-06-24T10:53:29;7.43;;;5.10;;
37407;SDS011;24866;50.248;8.252;2023-06-24T10:55:59;8.57;;;5.55;;
37407;SDS011;24866;50.248;8.252;2023-06-24T10:58:29;5.97;;;5.07;;
37407;SDS011;24866;50.248;8.252;2023-06-24T11:01:06;6.40;;;4.78;;
37407;SDS011;24866;50.248;8.252;2023-06-24T11:03:39;7.63;;;4.25;;
37407;SDS011;24866;50.248;8.252;2023-06-24T11:06:11;5.40;;;4.45;;
37407;SDS011;24866;50.248;8.252;2023-06-24T11:08:45;6.78;;;3.90;;
37407;SDS011;24866;50.248;8.252;2023-06-24T11:11:18;4.95;;;4.10;;
37407;SDS011;24866;50.248;8.252;2023-06-24T11:13:49;5.38;;;4.40;;
37407;SDS011;24866;50.248;8.252;2023-06-24T11:16:22;5.03;;;3.72;;
37407;SDS011;24866;50.248;8.252;2023-06-24T11:18:52;7.80;;;4.53;;
37407;SDS011;24866;50.248;8.252;2023-06-24T11:21:29;8.43;;;4.40;;
37407;SDS011;24866;50.248;8.252;2023-06-24T11:24:00;5.47;;;4.15;;
37407;SDS011;24866;50.248;8.252;2023-06-24T11:26:31;5.65;;;4.43;;
37407;SDS011;24866;50.248;8.252;2023-06-24T11:29:08;6.78;;;4.55;;
37407;SDS011;24866;50.248;8.252;2023-06-24T11:31:41;7.05;;;4.30;;
37407;SDS011;24866;50.248;8.252;2023-06-24T11:34:11;5.97;;;3.80;;
37407;SDS011;24866;50.248;8.252;2023-06-24T11:36:42;5.32;;;4.03;;
37407;SDS011;24866;50.248;8.252;2023-06-24T11:39:22;5.93;;;4.40;;
37407;SDS011;24866;50.248;8.252;2023-06-24T11:41:52;7.00;;;4.25;;
37407;SDS011;24866;50.248;8.252;2023-06-24T11:44:23;6.40;;;4.05;;
37407;SDS011;24866;50.248;8.252;2023-06-24T11:46:53;6.57;;;4.35;;
37407;SDS011;24866;50.248;8.252;2023-06-24T11:49:47;4.85;;;3.92;;
37407;SDS011;24866;50.248;8.252;2023-06-24T11:52:19;6.63;;;4.15;;
37407;SDS011;24866;50.248;8.252;2023-06-24T11:54:56;5.82;;;3.85;;
37407;SDS011;24866;50.248;8.252;2023-06-24T12:00:21;6.15;;;4.15;;
37407;SDS011;24866;50.248;8.252;2023-06-24T12:02:52;6.28;;;3.85;;
37407;SDS011;24866;50.248;8.252;2023-06-24T12:05:24;5.53;;;3.90;;
37407;SDS011;24866;50.248;8.252;2023-06-24T12:07:59;6.45;;;4.32;;
37407;SDS011;24866;50.248;8.252;2023-06-24T12:10:31;6.05;;;4.07;;
37407;SDS011;24866;50.248;8.252;2023-06-24T12:13:02;6.15;;;3.85;;
37407;SDS011;24866;50.248;8.252;2023-06-24T12:18:03;4.50;;;3.67;;
37407;SDS011;24866;50.248;8.252;2023-06-24T12:20:34;6.00;;;5.18;;
37407;SDS011;24866;50.248;8.252;2023-06-24T12:23:06;7.95;;;5.15;;
37407;SDS011;24866;50.248;8.252;2023-06-24T12:25:36;7.15;;;4.18;;
37407;SDS011;24866;50.248;8.252;2023-06-24T12:28:07;6.38;;;5.10;;
37407;SDS011;24866;50.248;8.252;2023-06-24T12:30:37;6.40;;;4.63;;
37407;SDS011;24866;50.248;8.252;2023-06-24T12:33:07;8.02;;;5.07;;
37407;SDS011;24866;50.248;8.252;2023-06-24T12:35:38;5.82;;;4.28;;
37407;SDS011;24866;50.248;8.252;2023-06-24T12:38:09;6.68;;;4.88;;
37407;SDS011;24866;50.248;8.252;2023-06-24T12:40:39;6.68;;;4.75;;
37407;SDS011;24866;50.248;8.252;2023-06-24T12:43:09;6.47;;;3.97;;
37407;SDS011;24866;50.248;8.252;2023-06-24T12:45:39;6.25;;;4.20;;
37407;SDS011;24866;50.248;8.252;2023-06-24T12:48:12;5.72;;;4.50;;
37407;SDS011;24866;50.248;8.252;2023-06-24T12:50:43;5.22;;;3.22;;
37407;SDS011;24866;50.248;8.252;2023-06-24T12:53:14;4.85;;;3.70;;
37407;SDS011;24866;50.248;8.252;2023-06-24T12:55:44;4.70;;;3.75;;
37407;SDS011;24866;50.248;8.252;2023-06-24T12:58:14;6.32;;;4.05;;
37407;SDS011;24866;50.248;8.252;2023-06-24T13:00:52;4.05;;;3.50;;
37407;SDS011;24866;50.248;8.252;2023-06-24T13:03:22;8.20;;;4.97;;
37407;SDS011;24866;50.248;8.252;2023-06-24T13:05:52;4.25;;;3.45;;
37407;SDS011;24866;50.248;8.252;2023-06-24T13:08:23;6.32;;;3.90;;
37407;SDS011;24866;50.248;8.252;2023-06-24T13:10:53;6.63;;;4.38;;
37407;SDS011;24866;50.248;8.252;2023-06-24T13:13:23;5.57;;;3.58;;
37407;SDS011;24866;50.248;8.252;2023-06-24T13:15:53;6.97;;;3.40;;
37407;SDS011;24866;50.248;8.252;2023-06-24T13:18:23;5.38;;;3.53;;
37407;SDS011;24866;50.248;8.252;2023-06-24T13:20:53;4.30;;;3.90;;
37407;SDS011;24866;50.248;8.252;2023-06-24T13:23:24;4.75;;;3.70;;
37407;SDS011;24866;50.248;8.252;2023-06-24T13:25:54;5.10;;;3.78;;
37407;SDS011;24866;50.248;8.252;2023-06-24T13:28:25;7.25;;;4.68;;
37407;SDS011;24866;50.248;8.252;2023-06-24T13:30:55;5.97;;;4.45;;
37407;SDS011;24866;50.248;8.252;2023-06-24T13:33:25;5.65;;;4.20;;
37407;SDS011;24866;50.248;8.252;2023-06-24T13:35:55;5.00;;;4.07;;
37407;SDS011;24866;50.248;8.252;2023-06-24T13:38:26;4.90;;;3.67;;
37407;SDS011;24866;50.248;8.252;2023-06-24T13:40:56;5.45;;;4.00;;
37407;SDS011;24866;50.248;8.252;2023-06-24T13:43:26;8.52;;;4.10;;
37407;SDS011;24866;50.248;8.252;2023-06-24T13:45:56;5.00;;;3.92;;
37407;SDS011;24866;50.248;8.252;2023-06-24T13:48:25;6.20;;;4.32;;
37407;SDS011;24866;50.248;8.252;2023-06-24T13:50:55;5.82;;;4.32;;
37407;SDS011;24866;50.248;8.252;2023-06-24T13:53:26;5.78;;;4.63;;
37407;SDS011;24866;50.248;8.252;2023-06-24T13:55:56;5.68;;;4.47;;
37407;SDS011;24866;50.248;8.252;2023-06-24T13:58:26;6.68;;;4.10;;
37407;SDS011;24866;50.248;8.252;2023-06-24T14:00:56;6.00;;;3.85;;
37407;SDS011;24866;50.248;8.252;2023-06-24T14:03:26;5.20;;;3.92;;
37407;SDS011;24866;50.248;8.252;2023-06-24T14:05:56;5.55;;;4.20;;
37407;SDS011;24866;50.248;8.252;2023-06-24T14:08:27;4.97;;;4.00;;
37407;SDS011;24866;50.248;8.252;2023-06-24T14:10:58;6.37;;;4.47;;
37407;SDS011;24866;50.248;8.252;2023-06-24T14:13:28;6.45;;;3.85;;
37407;SDS011;24866;50.248;8.252;2023-06-24T14:15:59;4.72;;;3.75;;
37407;SDS011;24866;50.248;8.252;2023-06-24T14:18:29;4.45;;;3.80;;
37407;SDS011;24866;50.248;8.252;2023-06-24T14:21:00;4.90;;;3.75;;
37407;SDS011;24866;50.248;8.252;2023-06-24T14:23:32;4.63;;;3.20;;
37407;SDS011;24866;50.248;8.252;2023-06-24T14:26:02;4.28;;;3.83;;
37407;SDS011;24866;50.248;8.252;2023-06-24T14:28:32;5.13;;;3.75;;
37407;SDS011;24866;50.248;8.252;2023-06-24T14:31:02;6.68;;;3.70;;
37407;SDS011;24866;50.248;8.252;2023-06-24T14:33:32;5.43;;;3.80;;
37407;SDS011;24866;50.248;8.252;2023-06-24T14:36:02;6.43;;;4.05;;
37407;SDS011;24866;50.248;8.252;2023-06-24T14:38:34;7.70;;;3.35;;
37407;SDS011;24866;50.248;8.252;2023-06-24T14:41:04;5.18;;;3.72;;
37407;SDS011;24866;50.248;8.252;2023-06-24T14:43:35;6.32;;;3.72;;
37407;SDS011;24866;50.248;8.252;2023-06-24T14:46:05;4.25;;;3.53;;
37407;SDS011;24866;50.248;8.252;2023-06-24T14:48:35;6.03;;;4.32;;
37407;SDS011;24866;50.248;8.252;2023-06-24T14:51:05;5.00;;;3.75;;
37407;SDS011;24866;50.248;8.252;2023-06-24T14:53:36;6.22;;;4.05;;
37407;SDS011;24866;50.248;8.252;2023-06-24T14:56:06;5.20;;;3.80;;
37407;SDS011;24866;50.248;8.252;2023-06-24T14:58:36;5.97;;;3.55;;
37407;SDS011;24866;50.248;8.252;2023-06-24T15:01:06;4.07;;;3.53;;
37407;SDS011;24866;50.248;8.252;2023-06-24T15:03:36;7.10;;;4.43;;
37407;SDS011;24866;50.248;8.252;2023-06-24T15:06:06;5.80;;;3.97;;
37407;SDS011;24866;50.248;8.252;2023-06-24T15:08:37;4.75;;;4.13;;
37407;SDS011;24866;50.248;8.252;2023-06-24T15:11:07;4.47;;;3.67;;
37407;SDS011;24866;50.248;8.252;2023-06-24T15:13:36;4.68;;;3.55;;
37407;SDS011;24866;50.248;8.252;2023-06-24T15:16:06;5.75;;;4.50;;
37407;SDS011;24866;50.248;8.252;2023-06-24T15:18:43;5.55;;;3.85;;
37407;SDS011;24866;50.248;8.252;2023-06-24T15:21:14;7.20;;;4.13;;
37407;SDS011;24866;50.248;8.252;2023-06-24T15:23:45;6.53;;;4.47;;
37407;SDS011;24866;50.248;8.252;2023-06-24T15:26:15;5.37;;;4.17;;
37407;SDS011;24866;50.248;8.252;2023-06-24T15:28:45;4.75;;;3.25;;
37407;SDS011;24866;50.248;8.252;2023-06-24T15:31:16;4.47;;;3.58;;